Dades meteomassalio
Diari Summary for Noviembre 30, 2017 Units:  Metric    English   Both
« Previous Day
Next Day »
Diari Semanal Mensual Anual Personalitzat
  Maxima: Minima: Mijana:
Temperatura: 10.0 °C -1.7 °C 5 °C
Rosada: 0.6 °C -5.2 °C -1 °C
Humitat: 78 % 48 % 66 %
Velocitat del vent: 42.6 km/h 0.0 km/h 22.6 km/h
Racha vent: 42.6 km/h - -
Vent:- - WNW
Pressio: 1021.2 hPa 1013.8 hPa -
Pluja: 0.0 mm    
Historical Graphs
 
 
Tabular Data for Noviembre 30, 2017
Time Temperature Dew Point Pressure Wind Wind Speed Wind Gust Humidity Rainfall Rate (Hourly) solar Conditions
00:02 5.0 °C 0.4 °C 1013.8 hPa NW 27.8 km/h 27.8 km/h 72 % 0.0 mm 0.0 W/m2 CLR
00:07 4.4 °C -0.2 °C 1014.1 hPa WNW 29.6 km/h 29.6 km/h 72 % 0.0 mm 0.0 W/m2 CLR
00:12 5.0 °C 0.6 °C 1014.1 hPa NW 31.5 km/h 31.5 km/h 73 % 0.0 mm 0.0 W/m2 CLR
00:17 5.0 °C 0.6 °C 1014.1 hPa NW 25.9 km/h 25.9 km/h 73 % 0.0 mm 0.0 W/m2 CLR
00:27 4.4 °C 0.0 °C 1014.1 hPa NW 33.3 km/h 33.3 km/h 73 % 0.0 mm 0.0 W/m2 CLR
00:37 4.4 °C 0.2 °C 1014.1 hPa NNW 31.5 km/h 31.5 km/h 74 % 0.0 mm 0.0 W/m2 CLR
00:42 4.4 °C 0.2 °C 1014.1 hPa WNW 25.9 km/h 25.9 km/h 74 % 0.0 mm 0.0 W/m2 CLR
00:47 4.4 °C 0.2 °C 1014.4 hPa NW 22.2 km/h 22.2 km/h 74 % 0.0 mm 0.0 W/m2 CLR
00:52 4.4 °C 0.2 °C 1014.4 hPa NNW 24.1 km/h 24.1 km/h 74 % 0.0 mm 0.0 W/m2 CLR
00:57 4.4 °C 0.2 °C 1014.4 hPa NNW 18.5 km/h 18.5 km/h 74 % 0.0 mm 0.0 W/m2 CLR
01:07 4.4 °C 0.2 °C 1014.8 hPa NW 18.5 km/h 18.5 km/h 74 % 0.0 mm 0.0 W/m2 CLR
01:12 4.4 °C 0.2 °C 1014.8 hPa NW 18.5 km/h 18.5 km/h 74 % 0.0 mm 0.0 W/m2 CLR
01:17 4.4 °C 0.2 °C 1014.8 hPa NW 20.4 km/h 20.4 km/h 74 % 0.0 mm 0.0 W/m2 CLR
01:22 3.9 °C -0.3 °C 1014.8 hPa NW 20.9 km/h 20.9 km/h 74 % 0.0 mm 0.0 W/m2 CLR
01:27 3.9 °C -0.3 °C 1014.8 hPa WNW 20.4 km/h 20.4 km/h 74 % 0.0 mm 0.0 W/m2 CLR
01:37 3.9 °C -0.3 °C 1014.4 hPa NW 33.8 km/h 33.8 km/h 74 % 0.0 mm 0.0 W/m2 CLR
01:54 3.9 °C -0.3 °C 1014.8 hPa WSW 16.7 km/h 16.7 km/h 74 % 0.0 mm 0.0 W/m2 CLR
02:04 3.9 °C -0.3 °C 1014.8 hPa WNW 14.5 km/h 14.5 km/h 74 % 0.0 mm 0.0 W/m2 CLR
02:09 3.3 °C -0.9 °C 1014.8 hPa WNW 18.5 km/h 18.5 km/h 74 % 0.0 mm 0.0 W/m2 CLR
02:14 3.3 °C -0.9 °C 1014.8 hPa NNW 16.1 km/h 16.1 km/h 74 % 0.0 mm 0.0 W/m2 CLR
02:19 3.3 °C -0.9 °C 1015.1 hPa NW 16.7 km/h 16.7 km/h 74 % 0.0 mm 0.0 W/m2 CLR
02:24 3.3 °C -0.9 °C 1014.8 hPa WNW 14.8 km/h 14.8 km/h 74 % 0.0 mm 0.0 W/m2 CLR
02:29 3.3 °C -0.9 °C 1015.1 hPa WNW 14.5 km/h 14.5 km/h 74 % 0.0 mm 0.0 W/m2 CLR
02:34 3.3 °C -0.9 °C 1014.8 hPa NW 18.5 km/h 18.5 km/h 74 % 0.0 mm 0.0 W/m2 CLR
02:39 3.3 °C -1.1 °C 1014.8 hPa WNW 13.0 km/h 13.0 km/h 73 % 0.0 mm 0.0 W/m2 CLR
02:44 3.3 °C -1.1 °C 1015.1 hPa WNW 16.7 km/h 16.7 km/h 73 % 0.0 mm 0.0 W/m2 CLR
02:49 3.3 °C -1.1 °C 1015.1 hPa West 14.8 km/h 14.8 km/h 73 % 0.0 mm 0.0 W/m2 CLR
02:54 3.3 °C -1.1 °C 1015.1 hPa WNW 13.0 km/h 13.0 km/h 73 % 0.0 mm 0.0 W/m2 CLR
02:59 3.3 °C -1.1 °C 1015.1 hPa WNW 18.5 km/h 18.5 km/h 73 % 0.0 mm 0.0 W/m2 CLR
03:04 2.8 °C -1.6 °C 1015.5 hPa WNW 18.5 km/h 18.5 km/h 73 % 0.0 mm 0.0 W/m2 CLR
03:09 2.8 °C -1.6 °C 1015.5 hPa NW 19.3 km/h 19.3 km/h 73 % 0.0 mm 0.0 W/m2 CLR
03:14 2.8 °C -1.6 °C 1015.1 hPa WNW 22.2 km/h 22.2 km/h 73 % 0.0 mm 0.0 W/m2 CLR
03:19 2.8 °C -1.6 °C 1015.1 hPa NW 27.4 km/h 27.4 km/h 73 % 0.0 mm 0.0 W/m2 CLR
03:24 2.8 °C -1.6 °C 1015.1 hPa NW 22.5 km/h 22.5 km/h 73 % 0.0 mm 0.0 W/m2 CLR
03:29 3.3 °C -1.1 °C 1015.1 hPa NW 20.9 km/h 20.9 km/h 73 % 0.0 mm 0.0 W/m2 CLR
03:34 3.3 °C -1.1 °C 1015.5 hPa NW 25.9 km/h 25.9 km/h 73 % 0.0 mm 0.0 W/m2 CLR
03:39 3.3 °C -1.1 °C 1015.1 hPa NW 25.9 km/h 25.9 km/h 73 % 0.0 mm 0.0 W/m2 CLR
03:44 3.3 °C -1.1 °C 1015.1 hPa WNW 25.9 km/h 25.9 km/h 73 % 0.0 mm 0.0 W/m2 CLR
03:49 3.3 °C -1.1 °C 1015.1 hPa NW 24.1 km/h 24.1 km/h 73 % 0.0 mm 0.0 W/m2 CLR
03:54 3.3 °C -1.1 °C 1015.5 hPa NW 24.1 km/h 24.1 km/h 73 % 0.0 mm 0.0 W/m2 CLR
03:59 3.3 °C -1.2 °C 1015.8 hPa NW 17.7 km/h 17.7 km/h 72 % 0.0 mm 0.0 W/m2 CLR
04:09 3.3 °C -1.1 °C 1015.8 hPa WNW 13.0 km/h 13.0 km/h 73 % 0.0 mm 0.0 W/m2 CLR
04:14 2.8 °C -1.6 °C 1015.5 hPa NW 18.5 km/h 18.5 km/h 73 % 0.0 mm 0.0 W/m2 CLR
04:19 2.8 °C -1.6 °C 1015.5 hPa WNW 17.7 km/h 17.7 km/h 73 % 0.0 mm 0.0 W/m2 CLR
04:24 2.8 °C -1.6 °C 1015.5 hPa WNW 18.5 km/h 18.5 km/h 73 % 0.0 mm 0.0 W/m2 CLR
04:29 2.8 °C -1.6 °C 1015.5 hPa WNW 22.2 km/h 22.2 km/h 73 % 0.0 mm 0.0 W/m2 CLR
04:34 2.8 °C -1.6 °C 1015.8 hPa WNW 13.0 km/h 13.0 km/h 73 % 0.0 mm 0.0 W/m2 CLR
04:44 2.8 °C -1.6 °C 1015.5 hPa NW 14.8 km/h 14.8 km/h 73 % 0.0 mm 0.0 W/m2 CLR
04:59 2.8 °C -1.6 °C 1015.8 hPa West 9.3 km/h 9.3 km/h 73 % 0.0 mm 0.0 W/m2 CLR
05:09 2.8 °C -1.6 °C 1015.5 hPa West 9.3 km/h 9.3 km/h 73 % 0.0 mm 0.0 W/m2 CLR
05:14 2.8 °C -1.6 °C 1015.8 hPa WNW 18.5 km/h 18.5 km/h 73 % 0.0 mm 0.0 W/m2 CLR
05:19 2.8 °C -1.6 °C 1015.8 hPa NW 5.6 km/h 5.6 km/h 73 % 0.0 mm 0.0 W/m2 CLR
05:24 2.2 °C -2.1 °C 1015.8 hPa West 5.6 km/h 5.6 km/h 73 % 0.0 mm 0.0 W/m2 CLR
05:34 1.7 °C -2.5 °C 1015.8 hPa West 5.6 km/h   74 % 0.0 mm 0.0 W/m2 CLR
05:44 1.7 °C -2.5 °C 1015.8 hPa NW 4.8 km/h 4.8 km/h 74 % 0.0 mm 0.0 W/m2 CLR
05:49 1.1 °C -2.8 °C 1015.8 hPa NW 9.7 km/h 9.7 km/h 75 % 0.0 mm 0.0 W/m2 CLR
05:59 1.7 °C -2.3 °C 1016.1 hPa WNW 18.5 km/h 18.5 km/h 75 % 0.0 mm 0.0 W/m2 CLR
06:04 1.7 °C -2.3 °C 1015.8 hPa NW 18.5 km/h 18.5 km/h 75 % 0.0 mm 0.0 W/m2 CLR
06:09 1.7 °C -2.3 °C 1015.8 hPa NW 22.5 km/h 22.5 km/h 75 % 0.0 mm 0.0 W/m2 CLR
06:19 1.7 °C -2.3 °C 1016.1 hPa NW 18.5 km/h 18.5 km/h 75 % 0.0 mm 0.0 W/m2 CLR
06:29 2.2 °C -1.8 °C 1016.1 hPa NW 14.8 km/h 14.8 km/h 75 % 0.0 mm 0.0 W/m2 CLR
06:49 1.1 °C -2.8 °C 1016.5 hPa NNW 11.1 km/h 11.1 km/h 75 % 0.0 mm 0.0 W/m2 CLR
06:55 1.1 °C -2.8 °C 1016.5 hPa NNW 5.6 km/h 5.6 km/h 75 % 0.0 mm 0.0 W/m2 CLR
07:00 0.6 °C -3.2 °C 1016.5 hPa North 13.0 km/h 13.0 km/h 76 % 0.0 mm 0.0 W/m2 CLR
07:06 0.6 °C -3.2 °C 1016.5 hPa NNW 11.3 km/h 11.3 km/h 76 % 0.0 mm 0.0 W/m2 CLR
07:11 0.0 °C -3.6 °C 1016.5 hPa Calm     77 % 0.0 mm 0.0 W/m2 CLR
07:16 0.0 °C -3.6 °C 1016.5 hPa WNW 13.0 km/h 13.0 km/h 77 % 0.0 mm 0.0 W/m2 CLR
07:31 -0.6 °C -4.1 °C 1016.5 hPa WNW 5.6 km/h 5.6 km/h 77 % 0.0 mm 0.0 W/m2 CLR
07:36 -1.1 °C -4.6 °C 1016.5 hPa WNW 9.3 km/h 9.3 km/h 77 % 0.0 mm 0.0 W/m2 CLR
07:41 -1.1 °C -4.4 °C 1016.8 hPa WNW 13.0 km/h 13.0 km/h 78 % 0.0 mm 0.0 W/m2 CLR
07:46 -1.7 °C -5.2 °C 1016.8 hPa West 14.8 km/h 14.8 km/h 77 % 0.0 mm 0.0 W/m2 CLR
07:51 -1.7 °C -5.0 °C 1016.8 hPa WNW 14.8 km/h 14.8 km/h 78 % 0.0 mm 0.0 W/m2 CLR
08:01 -1.7 °C -5.2 °C 1017.2 hPa WNW 18.5 km/h 18.5 km/h 77 % 0.0 mm 0.0 W/m2 OVC
08:06 -1.1 °C -4.6 °C 1017.2 hPa NW 18.5 km/h 18.5 km/h 77 % 0.0 mm 5.0 W/m2 OVC
08:11 -1.1 °C -4.4 °C 1017.2 hPa NW 18.5 km/h 18.5 km/h 78 % 0.0 mm 7.0 W/m2 BKN
08:26 0.6 °C -3.0 °C 1017.5 hPa NW 22.2 km/h 22.2 km/h 77 % 0.0 mm 14.0 W/m2 BKN
08:36 1.7 °C -1.9 °C 1017.5 hPa NNW 18.5 km/h 18.5 km/h 77 % 0.0 mm 21.0 W/m2 BKN
08:46 1.7 °C -2.3 °C 1017.5 hPa NW 16.7 km/h 16.7 km/h 75 % 0.0 mm 44.0 W/m2 BKN
08:56 2.2 °C -1.8 °C 1017.8 hPa NW 14.8 km/h 14.8 km/h 75 % 0.0 mm 65.0 W/m2 SCT
09:01 2.2 °C -1.9 °C 1017.8 hPa WNW 16.7 km/h 16.7 km/h 74 % 0.0 mm 79.0 W/m2 FEW
09:06 2.2 °C -1.9 °C 1017.8 hPa NW 13.0 km/h 13.0 km/h 74 % 0.0 mm 90.0 W/m2 FEW
09:16 2.8 °C -1.6 °C 1018.2 hPa WNW 16.7 km/h 16.7 km/h 73 % 0.0 mm 114.0 W/m2 CLR
09:21 2.8 °C -1.6 °C 1018.2 hPa NW 9.7 km/h 9.7 km/h 73 % 0.0 mm 121.0 W/m2 CLR
09:26 3.3 °C -1.2 °C 1018.2 hPa NNW 14.8 km/h 14.8 km/h 72 % 0.0 mm 146.0 W/m2 CLR
09:31 3.3 °C -1.4 °C 1018.2 hPa NW 9.3 km/h 9.3 km/h 71 % 0.0 mm 162.0 W/m2 CLR
09:36 3.3 °C -1.4 °C 1018.5 hPa West 16.1 km/h 16.1 km/h 71 % 0.0 mm 174.0 W/m2 CLR
09:46 3.9 °C -1.1 °C 1018.5 hPa NW 18.5 km/h 18.5 km/h 70 % 0.0 mm 137.0 W/m2 CLR
10:01 4.4 °C -0.6 °C 1018.5 hPa NW 20.4 km/h 20.4 km/h 70 % 0.0 mm 246.0 W/m2 CLR
10:06 4.4 °C -0.8 °C 1018.5 hPa NNW 27.8 km/h 27.8 km/h 69 % 0.0 mm 258.0 W/m2 CLR
10:11 4.4 °C -0.8 °C 1018.5 hPa NW 27.8 km/h 27.8 km/h 69 % 0.0 mm 272.0 W/m2 CLR
10:16 4.4 °C -0.8 °C 1018.5 hPa NW 18.5 km/h 18.5 km/h 69 % 0.0 mm 281.0 W/m2 CLR
10:26 5.0 °C -0.4 °C 1018.8 hPa NNW 22.2 km/h 22.2 km/h 68 % 0.0 mm 302.0 W/m2 CLR
10:31 5.0 °C -0.6 °C 1018.8 hPa WNW 22.5 km/h 22.5 km/h 67 % 0.0 mm 313.0 W/m2 CLR
10:41 5.6 °C -0.1 °C 1018.8 hPa NW 25.9 km/h 25.9 km/h 67 % 0.0 mm 330.0 W/m2 CLR
10:51 5.6 °C -0.3 °C 1018.8 hPa NNW 11.1 km/h 11.1 km/h 66 % 0.0 mm 350.0 W/m2 CLR
10:56 5.6 °C -0.5 °C 1019.2 hPa NW 24.1 km/h 24.1 km/h 65 % 0.0 mm 359.0 W/m2 CLR
11:01 6.1 °C 0.0 °C 1019.2 hPa NNW 25.9 km/h 25.9 km/h 65 % 0.0 mm 364.0 W/m2 CLR
11:06 6.1 °C -0.2 °C 1019.2 hPa North 13.0 km/h 13.0 km/h 64 % 0.0 mm 376.0 W/m2 CLR
11:11 6.1 °C -0.6 °C 1019.2 hPa NNW 27.8 km/h 27.8 km/h 62 % 0.0 mm 385.0 W/m2 CLR
11:17 6.7 °C 0.1 °C 1019.2 hPa NW 27.8 km/h 27.8 km/h 63 % 0.0 mm 390.0 W/m2 CLR
11:22 6.7 °C -0.1 °C 1019.2 hPa NW 24.1 km/h 24.1 km/h 62 % 0.0 mm 396.0 W/m2 CLR
11:27 6.7 °C -0.1 °C 1019.2 hPa NNW 30.6 km/h 30.6 km/h 62 % 0.0 mm 406.0 W/m2 CLR
11:32 6.7 °C -0.3 °C 1019.2 hPa NNW 33.3 km/h 33.3 km/h 61 % 0.0 mm 408.0 W/m2 CLR
11:37 6.7 °C -0.1 °C 1019.2 hPa North 22.5 km/h 22.5 km/h 62 % 0.0 mm 413.0 W/m2 CLR
11:42 6.7 °C -0.6 °C 1019.2 hPa NNW 33.3 km/h 33.3 km/h 60 % 0.0 mm 422.0 W/m2 CLR
11:47 7.2 °C 0.2 °C 1019.2 hPa NNW 31.5 km/h 31.5 km/h 61 % 0.0 mm 424.0 W/m2 CLR
11:52 7.2 °C 0.2 °C 1018.8 hPa NW 31.5 km/h 31.5 km/h 61 % 0.0 mm 443.0 W/m2 CLR
11:57 7.2 °C -0.1 °C 1018.8 hPa NW 25.9 km/h 25.9 km/h 60 % 0.0 mm 439.0 W/m2 CLR
12:07 7.8 °C 0.0 °C 1018.8 hPa North 33.3 km/h 33.3 km/h 58 % 0.0 mm 406.0 W/m2 CLR
12:17 7.8 °C -0.2 °C 1018.8 hPa NW 35.2 km/h 35.2 km/h 57 % 0.0 mm 448.0 W/m2 CLR
12:22 7.8 °C -0.4 °C 1018.5 hPa NW 33.3 km/h 33.3 km/h 56 % 0.0 mm 448.0 W/m2 CLR
12:28 8.3 °C 0.1 °C 1018.5 hPa North 22.5 km/h 22.5 km/h 56 % 0.0 mm 450.0 W/m2 CLR
12:33 8.3 °C 0.1 °C 1018.8 hPa North 40.7 km/h 40.7 km/h 56 % 0.0 mm 454.0 W/m2 CLR
12:38 8.3 °C 0.1 °C 1018.5 hPa North 35.2 km/h 35.2 km/h 56 % 0.0 mm 452.0 W/m2 CLR
12:43 8.3 °C -0.2 °C 1018.5 hPa North 35.4 km/h 35.4 km/h 55 % 0.0 mm 455.0 W/m2 CLR
12:54 8.3 °C 0.1 °C 1018.5 hPa NNW 31.5 km/h 31.5 km/h 56 % 0.0 mm 454.0 W/m2 CLR
13:14 8.9 °C 0.3 °C 1018.2 hPa NNW 27.8 km/h 27.8 km/h 55 % 0.0 mm 452.0 W/m2 CLR
13:19 8.9 °C 0.1 °C 1018.2 hPa NNE 27.8 km/h 27.8 km/h 54 % 0.0 mm 446.0 W/m2 CLR
13:24 8.9 °C -0.2 °C 1018.5 hPa NNW 31.5 km/h 31.5 km/h 53 % 0.0 mm 387.0 W/m2 CLR
13:34 9.4 °C -0.2 °C 1018.5 hPa NNW 37.0 km/h 37.0 km/h 51 % 0.0 mm 436.0 W/m2 CLR
13:44 8.9 °C -0.4 °C 1018.5 hPa NNW 33.3 km/h 33.3 km/h 52 % 0.0 mm 431.0 W/m2 CLR
13:54 9.4 °C 0.1 °C 1018.5 hPa NNW 25.9 km/h 25.9 km/h 52 % 0.0 mm 422.0 W/m2 CLR
13:59 9.4 °C 0.1 °C 1018.2 hPa NNW 38.9 km/h 38.9 km/h 52 % 0.0 mm 417.0 W/m2 CLR
14:04 9.4 °C 0.1 °C 1018.2 hPa NW 30.6 km/h 30.6 km/h 52 % 0.0 mm 410.0 W/m2 CLR
14:19 10.0 °C 0.1 °C 1018.2 hPa North 37.0 km/h 37.0 km/h 50 % 0.0 mm 394.0 W/m2 CLR
14:24 9.4 °C -0.4 °C 1018.2 hPa NNW 31.5 km/h 31.5 km/h 50 % 0.0 mm 387.0 W/m2 CLR
14:39 9.4 °C -0.2 °C 1018.2 hPa North 25.9 km/h 25.9 km/h 51 % 0.0 mm 392.0 W/m2 CLR
14:44 10.0 °C 0.3 °C 1018.2 hPa North 37.0 km/h 37.0 km/h 51 % 0.0 mm 367.0 W/m2 CLR
14:49 10.0 °C 0.1 °C 1018.2 hPa North 33.3 km/h 33.3 km/h 50 % 0.0 mm 369.0 W/m2 CLR
15:00 9.4 °C -0.7 °C 1018.2 hPa NW 31.5 km/h 31.5 km/h 49 % 0.0 mm 155.0 W/m2 CLR
15:05 8.9 °C -1.0 °C 1018.2 hPa NNW 27.8 km/h 27.8 km/h 50 % 0.0 mm 47.0 W/m2 CLR
15:10 8.9 °C -0.7 °C 1017.8 hPa NNW 29.6 km/h 29.6 km/h 51 % 0.0 mm 313.0 W/m2 SCT
15:20 9.4 °C -0.4 °C 1017.8 hPa NNW 33.8 km/h 33.8 km/h 50 % 0.0 mm 287.0 W/m2 CLR
15:30 10.0 °C -0.2 °C 1018.2 hPa NNW 33.3 km/h 33.3 km/h 49 % 0.0 mm 269.0 W/m2 CLR
15:35 10.0 °C -0.2 °C 1018.2 hPa North 29.6 km/h 29.6 km/h 49 % 0.0 mm 257.0 W/m2 CLR
15:40 10.0 °C -0.5 °C 1018.2 hPa NW 31.5 km/h 31.5 km/h 48 % 0.0 mm 241.0 W/m2 CLR
15:45 10.0 °C -0.5 °C 1018.2 hPa NNW 38.9 km/h 38.9 km/h 48 % 0.0 mm 229.0 W/m2 CLR
15:50 9.4 °C -1.1 °C 1018.2 hPa NNW 31.5 km/h 31.5 km/h 48 % 0.0 mm 213.0 W/m2 CLR
16:05 8.9 °C -1.3 °C 1018.2 hPa North 35.2 km/h 35.2 km/h 49 % 0.0 mm 169.0 W/m2 CLR
16:10 8.9 °C -1.3 °C 1018.5 hPa NNW 20.4 km/h 20.4 km/h 49 % 0.0 mm 155.0 W/m2 CLR
16:15 8.9 °C -1.3 °C 1018.5 hPa North 30.6 km/h 30.6 km/h 49 % 0.0 mm 141.0 W/m2 CLR
16:20 8.9 °C -1.3 °C 1018.5 hPa NNW 31.5 km/h 31.5 km/h 49 % 0.0 mm 127.0 W/m2 CLR
16:25 8.9 °C -1.0 °C 1018.5 hPa NNW 42.6 km/h 42.6 km/h 50 % 0.0 mm 88.0 W/m2 CLR
16:30 8.3 °C -1.2 °C 1018.5 hPa NW 31.5 km/h 31.5 km/h 51 % 0.0 mm 30.0 W/m2 FEW
16:35 8.3 °C -0.9 °C 1018.5 hPa NNW 37.0 km/h 37.0 km/h 52 % 0.0 mm 86.0 W/m2 CLR
16:40 8.3 °C -0.7 °C 1018.8 hPa North 38.9 km/h 38.9 km/h 53 % 0.0 mm 69.0 W/m2 FEW
16:45 8.3 °C -0.7 °C 1018.8 hPa North 37.0 km/h 37.0 km/h 53 % 0.0 mm 54.0 W/m2 SCT
16:55 7.8 °C -1.2 °C 1018.8 hPa North 25.9 km/h 25.9 km/h 53 % 0.0 mm 39.0 W/m2 BKN
17:00 7.8 °C -1.2 °C 1018.8 hPa North 27.8 km/h 27.8 km/h 53 % 0.0 mm 30.0 W/m2 BKN
17:15 7.8 °C -0.7 °C 1019.2 hPa NNW 22.5 km/h 22.5 km/h 55 % 0.0 mm 12.0 W/m2 BKN
17:20 7.8 °C -0.7 °C 1019.2 hPa NW 22.2 km/h 22.2 km/h 55 % 0.0 mm 11.0 W/m2 BKN
17:25 7.2 °C -1.2 °C 1019.2 hPa NNW 27.8 km/h 27.8 km/h 55 % 0.0 mm 7.0 W/m2 BKN
17:35 7.2 °C -1.0 °C 1019.2 hPa NNW 18.5 km/h 18.5 km/h 56 % 0.0 mm 0.0 W/m2 OVC
17:45 7.2 °C -1.0 °C 1019.5 hPa NNW 18.5 km/h 18.5 km/h 56 % 0.0 mm 0.0 W/m2 CLR
17:50 7.2 °C -1.0 °C 1019.5 hPa NNW 29.6 km/h 29.6 km/h 56 % 0.0 mm 0.0 W/m2 CLR
17:55 6.7 °C -1.3 °C 1019.5 hPa NW 22.2 km/h 22.2 km/h 57 % 0.0 mm 0.0 W/m2 CLR
18:00 6.7 °C -1.3 °C 1019.5 hPa NNW 19.3 km/h 19.3 km/h 57 % 0.0 mm 0.0 W/m2 CLR
18:05 6.7 °C -1.3 °C 1019.9 hPa NNW 24.1 km/h 24.1 km/h 57 % 0.0 mm 0.0 W/m2 CLR
18:10 6.7 °C -1.3 °C 1019.5 hPa North 20.4 km/h 20.4 km/h 57 % 0.0 mm 0.0 W/m2 CLR
18:15 6.1 °C -1.8 °C 1019.5 hPa NW 19.3 km/h 19.3 km/h 57 % 0.0 mm 0.0 W/m2 CLR
18:30 6.1 °C -1.6 °C 1019.9 hPa NW 16.7 km/h 16.7 km/h 58 % 0.0 mm 0.0 W/m2 CLR
18:35 6.1 °C -1.6 °C 1019.9 hPa NNW 22.2 km/h 22.2 km/h 58 % 0.0 mm 0.0 W/m2 CLR
18:40 6.1 °C -1.3 °C 1019.9 hPa NW 16.7 km/h 16.7 km/h 59 % 0.0 mm 0.0 W/m2 CLR
18:45 6.1 °C -1.3 °C 1019.9 hPa NNW 18.5 km/h 18.5 km/h 59 % 0.0 mm 0.0 W/m2 CLR
19:00 6.1 °C -1.1 °C 1020.2 hPa NW 22.2 km/h 22.2 km/h 60 % 0.0 mm 0.0 W/m2 CLR
19:05 5.6 °C -1.8 °C 1020.2 hPa NW 29.6 km/h 29.6 km/h 59 % 0.0 mm 0.0 W/m2 CLR
19:10 5.6 °C -1.6 °C 1020.2 hPa NW 22.2 km/h 22.2 km/h 60 % 0.0 mm 0.0 W/m2 CLR
19:15 5.6 °C -1.6 °C 1019.9 hPa NW 22.2 km/h 22.2 km/h 60 % 0.0 mm 0.0 W/m2 CLR
19:20 5.6 °C -1.6 °C 1019.9 hPa NNW 20.4 km/h 20.4 km/h 60 % 0.0 mm 0.0 W/m2 CLR
19:30 5.6 °C -1.4 °C 1019.9 hPa NW 24.1 km/h 24.1 km/h 61 % 0.0 mm 0.0 W/m2 CLR
19:35 5.6 °C -1.4 °C 1019.9 hPa NNW 25.9 km/h 25.9 km/h 61 % 0.0 mm 0.0 W/m2 CLR
19:45 5.6 °C -1.2 °C 1020.2 hPa NW 29.6 km/h 29.6 km/h 62 % 0.0 mm 0.0 W/m2 CLR
19:46 5.6 °C -1.2 °C 1020.2 hPa NNW 29.6 km/h 29.6 km/h 62 % 0.0 mm 0.0 W/m2 CLR
19:51 5.6 °C -0.9 °C 1019.9 hPa NNW 25.9 km/h 25.9 km/h 63 % 0.0 mm 0.0 W/m2 CLR
19:56 5.6 °C -0.9 °C 1020.2 hPa NNW 25.9 km/h 25.9 km/h 63 % 0.0 mm 0.0 W/m2 CLR
20:06 5.6 °C -0.9 °C 1020.2 hPa NW 25.9 km/h 25.9 km/h 63 % 0.0 mm 0.0 W/m2 CLR
20:21 5.6 °C -0.7 °C 1020.2 hPa NW 27.4 km/h 27.4 km/h 64 % 0.0 mm 0.0 W/m2 CLR
20:26 5.6 °C -0.7 °C 1020.2 hPa NW 27.8 km/h 27.8 km/h 64 % 0.0 mm 0.0 W/m2 CLR
20:36 5.6 °C -0.7 °C 1020.5 hPa NW 22.2 km/h 22.2 km/h 64 % 0.0 mm 0.0 W/m2 CLR
20:41 5.6 °C -0.5 °C 1020.5 hPa NNW 22.2 km/h 22.2 km/h 65 % 0.0 mm 0.0 W/m2 CLR
20:46 5.0 °C -0.8 °C 1020.5 hPa NW 20.4 km/h 20.4 km/h 66 % 0.0 mm 0.0 W/m2 CLR
20:51 5.0 °C -0.6 °C 1020.5 hPa NNW 25.9 km/h 25.9 km/h 67 % 0.0 mm 0.0 W/m2 CLR
20:56 5.0 °C -0.6 °C 1020.5 hPa NW 25.9 km/h 25.9 km/h 67 % 0.0 mm 0.0 W/m2 CLR
21:01 5.6 °C -0.1 °C 1020.5 hPa NW 31.5 km/h 31.5 km/h 67 % 0.0 mm 0.0 W/m2 CLR
21:06 5.0 °C -0.4 °C 1020.5 hPa WNW 18.5 km/h 18.5 km/h 68 % 0.0 mm 0.0 W/m2 CLR
21:11 5.0 °C -0.4 °C 1020.9 hPa NW 25.9 km/h 25.9 km/h 68 % 0.0 mm 0.0 W/m2 CLR
21:16 5.0 °C -0.2 °C 1020.9 hPa NNW 22.5 km/h 22.5 km/h 69 % 0.0 mm 0.0 W/m2 CLR
21:26 5.0 °C 0.0 °C 1020.9 hPa NW 25.9 km/h 25.9 km/h 70 % 0.0 mm 0.0 W/m2 CLR
21:31 5.0 °C 0.0 °C 1020.9 hPa NNW 29.6 km/h 29.6 km/h 70 % 0.0 mm 0.0 W/m2 CLR
21:36 5.0 °C 0.0 °C 1020.9 hPa NW 22.5 km/h 22.5 km/h 70 % 0.0 mm 0.0 W/m2 CLR
21:46 5.0 °C 0.0 °C 1020.9 hPa NW 27.8 km/h 27.8 km/h 70 % 0.0 mm 0.0 W/m2 CLR
21:56 5.0 °C 0.0 °C 1021.2 hPa NW 24.1 km/h 24.1 km/h 70 % 0.0 mm 0.0 W/m2 CLR
22:06 5.0 °C 0.0 °C 1021.2 hPa NW 20.9 km/h 20.9 km/h 70 % 0.0 mm 0.0 W/m2 CLR
22:11 5.0 °C 0.0 °C 1021.2 hPa NW 20.4 km/h 20.4 km/h 70 % 0.0 mm 0.0 W/m2 CLR
22:16 5.0 °C 0.0 °C 1021.2 hPa WNW 18.5 km/h 18.5 km/h 70 % 0.0 mm 0.0 W/m2 CLR
22:26 5.0 °C 0.0 °C 1021.2 hPa NW 20.4 km/h 20.4 km/h 70 % 0.0 mm 0.0 W/m2 CLR
22:36 5.0 °C 0.0 °C 1021.2 hPa WNW 22.2 km/h 22.2 km/h 70 % 0.0 mm 0.0 W/m2 CLR
22:41 4.4 °C -0.6 °C 1020.9 hPa NNW 18.5 km/h 18.5 km/h 70 % 0.0 mm 0.0 W/m2 CLR
22:46 4.4 °C -0.6 °C 1020.9 hPa NW 20.4 km/h 20.4 km/h 70 % 0.0 mm 0.0 W/m2 CLR
22:56 4.4 °C -0.3 °C 1020.9 hPa NNW 18.5 km/h 18.5 km/h 71 % 0.0 mm 0.0 W/m2 CLR
23:01 5.0 °C 0.2 °C 1020.9 hPa NNW 20.9 km/h 20.9 km/h 71 % 0.0 mm 0.0 W/m2 CLR
23:06 5.0 °C 0.2 °C 1020.9 hPa NNW 25.9 km/h 25.9 km/h 71 % 0.0 mm 0.0 W/m2 CLR
23:11 5.0 °C 0.2 °C 1020.9 hPa NW 22.2 km/h 22.2 km/h 71 % 0.0 mm 0.0 W/m2 CLR
23:16 4.4 °C -0.3 °C 1020.9 hPa NW 20.4 km/h 20.4 km/h 71 % 0.0 mm 0.0 W/m2 CLR
23:21 4.4 °C -0.3 °C 1020.9 hPa NW 22.2 km/h 22.2 km/h 71 % 0.0 mm 0.0 W/m2 CLR
23:26 4.4 °C -0.3 °C 1020.9 hPa NW 18.5 km/h 18.5 km/h 71 % 0.0 mm 0.0 W/m2 CLR
23:36 4.4 °C -0.3 °C 1020.5 hPa NW 16.7 km/h 16.7 km/h 71 % 0.0 mm 0.0 W/m2 CLR
23:41 4.4 °C -0.3 °C 1020.5 hPa WNW 14.8 km/h 14.8 km/h 71 % 0.0 mm 0.0 W/m2 CLR
23:46 4.4 °C -0.3 °C 1020.5 hPa WNW 13.0 km/h 13.0 km/h 71 % 0.0 mm 0.0 W/m2 CLR
23:51 3.9 °C -1.1 °C 1020.5 hPa NW 14.8 km/h 14.8 km/h 70 % 0.0 mm 0.0 W/m2 CLR
23:56 3.9 °C -1.1 °C 1020.5 hPa WNW 13.0 km/h 13.0 km/h 70 % 0.0 mm 0.0 W/m2 CLR
Lo Temps de Massalio
Compliments of Weather Underground - 1 mb